sensor_id;sensor_type;location;lat;lon;timestamp;temperature;humidity
38910;DHT22;24676;51.360;12.354;2023-04-19T00:00:55;9.40;99.90
38910;DHT22;24676;51.360;12.354;2023-04-19T00:03:40;9.40;99.90
38910;DHT22;24676;51.360;12.354;2023-04-19T00:06:24;9.40;99.90
38910;DHT22;24676;51.360;12.354;2023-04-19T00:09:09;9.30;99.90
38910;DHT22;24676;51.360;12.354;2023-04-19T00:11:53;9.30;99.90
38910;DHT22;24676;51.360;12.354;2023-04-19T00:14:37;9.30;99.90
38910;DHT22;24676;51.360;12.354;2023-04-19T00:17:21;9.30;99.90
38910;DHT22;24676;51.360;12.354;2023-04-19T00:20:05;9.30;99.90
38910;DHT22;24676;51.360;12.354;2023-04-19T00:22:51;9.30;99.90
38910;DHT22;24676;51.360;12.354;2023-04-19T00:25:35;9.30;99.90
38910;DHT22;24676;51.360;12.354;2023-04-19T00:28:19;9.20;99.90
38910;DHT22;24676;51.360;12.354;2023-04-19T00:31:03;9.20;99.90
38910;DHT22;24676;51.360;12.354;2023-04-19T00:33:47;9.10;99.90
38910;DHT22;24676;51.360;12.354;2023-04-19T00:36:32;9.10;99.90
38910;DHT22;24676;51.360;12.354;2023-04-19T00:39:16;9.10;99.90
38910;DHT22;24676;51.360;12.354;2023-04-19T00:42:00;9.00;99.90
38910;DHT22;24676;51.360;12.354;2023-04-19T00:44:45;9.00;99.90
38910;DHT22;24676;51.360;12.354;2023-04-19T00:47:29;8.90;99.90
38910;DHT22;24676;51.360;12.354;2023-04-19T00:50:14;8.80;99.90
38910;DHT22;24676;51.360;12.354;2023-04-19T00:52:58;8.80;99.90
38910;DHT22;24676;51.360;12.354;2023-04-19T00:55:42;8.80;99.90
38910;DHT22;24676;51.360;12.354;2023-04-19T00:58:27;8.70;99.90
38910;DHT22;24676;51.360;12.354;2023-04-19T01:01:14;8.60;99.90
38910;DHT22;24676;51.360;12.354;2023-04-19T01:03:59;8.60;99.90
38910;DHT22;24676;51.360;12.354;2023-04-19T01:06:44;8.50;99.90
38910;DHT22;24676;51.360;12.354;2023-04-19T01:09:29;8.50;99.90
38910;DHT22;24676;51.360;12.354;2023-04-19T01:12:13;8.50;99.90
38910;DHT22;24676;51.360;12.354;2023-04-19T01:14:58;8.50;99.90
38910;DHT22;24676;51.360;12.354;2023-04-19T01:17:42;8.40;99.90
38910;DHT22;24676;51.360;12.354;2023-04-19T01:20:26;8.40;99.90
38910;DHT22;24676;51.360;12.354;2023-04-19T01:23:11;8.40;99.90
38910;DHT22;24676;51.360;12.354;2023-04-19T01:25:55;8.40;99.90
38910;DHT22;24676;51.360;12.354;2023-04-19T01:28:39;8.40;99.90
38910;DHT22;24676;51.360;12.354;2023-04-19T01:31:23;8.30;99.90
38910;DHT22;24676;51.360;12.354;2023-04-19T01:34:07;8.30;99.90
38910;DHT22;24676;51.360;12.354;2023-04-19T01:36:51;8.30;99.90
38910;DHT22;24676;51.360;12.354;2023-04-19T01:39:35;8.30;99.90
38910;DHT22;24676;51.360;12.354;2023-04-19T01:42:19;8.30;99.90
38910;DHT22;24676;51.360;12.354;2023-04-19T01:45:04;8.20;99.90
38910;DHT22;24676;51.360;12.354;2023-04-19T01:47:48;8.20;99.90
38910;DHT22;24676;51.360;12.354;2023-04-19T01:50:33;8.10;99.90
38910;DHT22;24676;51.360;12.354;2023-04-19T01:53:17;8.10;99.90
38910;DHT22;24676;51.360;12.354;2023-04-19T01:56:02;8.10;99.90
38910;DHT22;24676;51.360;12.354;2023-04-19T01:58:46;8.10;99.90
38910;DHT22;24676;51.360;12.354;2023-04-19T02:01:30;8.00;99.90
38910;DHT22;24676;51.360;12.354;2023-04-19T02:04:14;8.00;99.90
38910;DHT22;24676;51.360;12.354;2023-04-19T02:06:58;7.90;99.90
38910;DHT22;24676;51.360;12.354;2023-04-19T02:09:43;7.90;99.90
38910;DHT22;24676;51.360;12.354;2023-04-19T02:12:27;7.80;99.90
38910;DHT22;24676;51.360;12.354;2023-04-19T02:15:11;7.70;99.90
38910;DHT22;24676;51.360;12.354;2023-04-19T02:17:56;7.70;99.90
38910;DHT22;24676;51.360;12.354;2023-04-19T02:20:40;7.70;99.90
38910;DHT22;24676;51.360;12.354;2023-04-19T02:23:24;7.60;99.90
38910;DHT22;24676;51.360;12.354;2023-04-19T02:26:09;7.60;99.90
38910;DHT22;24676;51.360;12.354;2023-04-19T02:28:54;7.60;99.90
38910;DHT22;24676;51.360;12.354;2023-04-19T02:31:38;7.50;99.90
38910;DHT22;24676;51.360;12.354;2023-04-19T02:34:23;7.50;99.90
38910;DHT22;24676;51.360;12.354;2023-04-19T02:37:07;7.50;99.90
38910;DHT22;24676;51.360;12.354;2023-04-19T02:39:51;7.40;99.90
38910;DHT22;24676;51.360;12.354;2023-04-19T02:42:35;7.40;99.90
38910;DHT22;24676;51.360;12.354;2023-04-19T02:45:19;7.40;99.90
38910;DHT22;24676;51.360;12.354;2023-04-19T02:48:04;7.30;99.90
38910;DHT22;24676;51.360;12.354;2023-04-19T02:50:48;7.30;99.90
38910;DHT22;24676;51.360;12.354;2023-04-19T02:53:33;7.20;99.90
38910;DHT22;24676;51.360;12.354;2023-04-19T02:56:17;7.30;99.90
38910;DHT22;24676;51.360;12.354;2023-04-19T02:59:02;7.20;99.90
38910;DHT22;24676;51.360;12.354;2023-04-19T03:01:46;7.20;99.90
38910;DHT22;24676;51.360;12.354;2023-04-19T03:04:30;7.20;99.90
38910;DHT22;24676;51.360;12.354;2023-04-19T03:07:14;7.10;99.90
38910;DHT22;24676;51.360;12.354;2023-04-19T03:09:59;7.10;99.90
38910;DHT22;24676;51.360;12.354;2023-04-19T03:12:43;7.10;99.90
38910;DHT22;24676;51.360;12.354;2023-04-19T03:15:27;7.10;99.90
38910;DHT22;24676;51.360;12.354;2023-04-19T03:18:11;7.00;99.90
38910;DHT22;24676;51.360;12.354;2023-04-19T03:20:55;7.00;99.90
38910;DHT22;24676;51.360;12.354;2023-04-19T03:23:39;7.00;99.90
38910;DHT22;24676;51.360;12.354;2023-04-19T03:26:23;7.00;99.90
38910;DHT22;24676;51.360;12.354;2023-04-19T03:29:07;7.00;99.90
38910;DHT22;24676;51.360;12.354;2023-04-19T03:31:51;7.00;99.90
38910;DHT22;24676;51.360;12.354;2023-04-19T03:34:35;7.00;99.90
38910;DHT22;24676;51.360;12.354;2023-04-19T03:37:19;7.00;99.90
38910;DHT22;24676;51.360;12.354;2023-04-19T03:40:04;7.00;99.90
38910;DHT22;24676;51.360;12.354;2023-04-19T03:42:48;7.00;99.90
38910;DHT22;24676;51.360;12.354;2023-04-19T03:45:32;7.00;99.90
38910;DHT22;24676;51.360;12.354;2023-04-19T03:48:16;7.00;99.90
38910;DHT22;24676;51.360;12.354;2023-04-19T03:51:00;7.00;99.90
38910;DHT22;24676;51.360;12.354;2023-04-19T03:53:45;7.00;99.90
38910;DHT22;24676;51.360;12.354;2023-04-19T03:56:28;7.00;99.90
38910;DHT22;24676;51.360;12.354;2023-04-19T03:59:13;7.00;99.90
38910;DHT22;24676;51.360;12.354;2023-04-19T04:01:57;7.00;99.90
38910;DHT22;24676;51.360;12.354;2023-04-19T04:04:41;7.00;99.90
38910;DHT22;24676;51.360;12.354;2023-04-19T04:07:25;6.90;99.90
38910;DHT22;24676;51.360;12.354;2023-04-19T04:10:09;6.90;99.90
38910;DHT22;24676;51.360;12.354;2023-04-19T04:12:54;6.90;99.90
38910;DHT22;24676;51.360;12.354;2023-04-19T04:15:38;6.90;99.90
38910;DHT22;24676;51.360;12.354;2023-04-19T04:18:21;6.90;99.90
38910;DHT22;24676;51.360;12.354;2023-04-19T04:21:06;6.90;99.90
38910;DHT22;24676;51.360;12.354;2023-04-19T04:23:50;6.80;99.90
38910;DHT22;24676;51.360;12.354;2023-04-19T04:26:36;6.80;99.90
38910;DHT22;24676;51.360;12.354;2023-04-19T04:29:22;6.80;99.90
38910;DHT22;24676;51.360;12.354;2023-04-19T04:32:07;6.80;99.90
38910;DHT22;24676;51.360;12.354;2023-04-19T04:34:51;6.80;99.90
38910;DHT22;24676;51.360;12.354;2023-04-19T04:37:36;6.80;99.90
38910;DHT22;24676;51.360;12.354;2023-04-19T04:40:21;6.80;99.90
38910;DHT22;24676;51.360;12.354;2023-04-19T04:43:05;6.80;99.90
38910;DHT22;24676;51.360;12.354;2023-04-19T04:45:49;6.80;99.90
38910;DHT22;24676;51.360;12.354;2023-04-19T04:48:33;6.80;99.90
38910;DHT22;24676;51.360;12.354;2023-04-19T04:51:18;6.90;99.90
38910;DHT22;24676;51.360;12.354;2023-04-19T04:54:02;6.90;99.90
38910;DHT22;24676;51.360;12.354;2023-04-19T04:56:47;6.90;99.90
38910;DHT22;24676;51.360;12.354;2023-04-19T04:59:32;6.90;99.90
38910;DHT22;24676;51.360;12.354;2023-04-19T05:02:16;7.00;99.90
38910;DHT22;24676;51.360;12.354;2023-04-19T05:05:01;7.00;99.90
38910;DHT22;24676;51.360;12.354;2023-04-19T05:07:46;7.00;99.90
38910;DHT22;24676;51.360;12.354;2023-04-19T05:10:30;7.10;99.90
38910;DHT22;24676;51.360;12.354;2023-04-19T05:13:14;7.20;99.90
38910;DHT22;24676;51.360;12.354;2023-04-19T05:15:58;7.30;99.90
38910;DHT22;24676;51.360;12.354;2023-04-19T05:18:42;7.40;99.90
38910;DHT22;24676;51.360;12.354;2023-04-19T05:21:27;7.60;99.90
38910;DHT22;24676;51.360;12.354;2023-04-19T05:24:11;7.80;99.90
38910;DHT22;24676;51.360;12.354;2023-04-19T05:26:55;8.00;99.90
38910;DHT22;24676;51.360;12.354;2023-04-19T05:29:39;8.00;99.90
38910;DHT22;24676;51.360;12.354;2023-04-19T05:32:24;8.00;97.30
38910;DHT22;24676;51.360;12.354;2023-04-19T05:35:08;8.00;93.40
38910;DHT22;24676;51.360;12.354;2023-04-19T05:37:52;8.00;92.90
38910;DHT22;24676;51.360;12.354;2023-04-19T05:40:37;7.90;90.40
38910;DHT22;24676;51.360;12.354;2023-04-19T05:43:22;7.80;90.90
38910;DHT22;24676;51.360;12.354;2023-04-19T05:46:06;7.80;91.00
38910;DHT22;24676;51.360;12.354;2023-04-19T05:48:51;7.70;90.00
38910;DHT22;24676;51.360;12.354;2023-04-19T05:51:35;7.70;90.00
38910;DHT22;24676;51.360;12.354;2023-04-19T05:54:19;7.80;86.50
38910;DHT22;24676;51.360;12.354;2023-04-19T05:57:03;8.00;87.90
38910;DHT22;24676;51.360;12.354;2023-04-19T05:59:48;8.10;87.80
38910;DHT22;24676;51.360;12.354;2023-04-19T06:02:32;8.20;87.30
38910;DHT22;24676;51.360;12.354;2023-04-19T06:05:16;8.30;87.30
38910;DHT22;24676;51.360;12.354;2023-04-19T06:08:01;8.40;88.40
38910;DHT22;24676;51.360;12.354;2023-04-19T06:10:45;8.40;83.50
38910;DHT22;24676;51.360;12.354;2023-04-19T06:13:32;8.80;83.00
38910;DHT22;24676;51.360;12.354;2023-04-19T06:16:16;9.10;75.80
38910;DHT22;24676;51.360;12.354;2023-04-19T06:19:00;9.00;71.90
38910;DHT22;24676;51.360;12.354;2023-04-19T06:21:44;9.00;75.20
38910;DHT22;24676;51.360;12.354;2023-04-19T06:24:28;9.60;74.60
38910;DHT22;24676;51.360;12.354;2023-04-19T06:27:14;10.60;67.70
38910;DHT22;24676;51.360;12.354;2023-04-19T06:29:59;11.30;63.20
38910;DHT22;24676;51.360;12.354;2023-04-19T06:32:44;12.30;59.00
38910;DHT22;24676;51.360;12.354;2023-04-19T06:35:28;15.60;54.80
38910;DHT22;24676;51.360;12.354;2023-04-19T06:38:13;19.10;44.10
38910;DHT22;24676;51.360;12.354;2023-04-19T06:40:57;21.80;37.40
38910;DHT22;24676;51.360;12.354;2023-04-19T06:43:41;23.40;33.30
38910;DHT22;24676;51.360;12.354;2023-04-19T06:46:27;25.40;29.90
38910;DHT22;24676;51.360;12.354;2023-04-19T06:49:11;26.30;27.30
38910;DHT22;24676;51.360;12.354;2023-04-19T06:51:57;27.50;27.30
38910;DHT22;24676;51.360;12.354;2023-04-19T06:54:41;28.30;25.80
38910;DHT22;24676;51.360;12.354;2023-04-19T06:57:25;29.10;24.90
38910;DHT22;24676;51.360;12.354;2023-04-19T07:00:09;29.00;24.50
38910;DHT22;24676;51.360;12.354;2023-04-19T07:02:54;29.30;23.90
38910;DHT22;24676;51.360;12.354;2023-04-19T07:05:38;30.40;23.90
38910;DHT22;24676;51.360;12.354;2023-04-19T07:08:23;30.90;23.20
38910;DHT22;24676;51.360;12.354;2023-04-19T07:11:08;30.70;22.20
38910;DHT22;24676;51.360;12.354;2023-04-19T07:13:52;31.30;22.90
38910;DHT22;24676;51.360;12.354;2023-04-19T07:16:36;31.10;22.60
38910;DHT22;24676;51.360;12.354;2023-04-19T07:19:20;32.20;21.90
38910;DHT22;24676;51.360;12.354;2023-04-19T07:22:06;32.20;21.50
38910;DHT22;24676;51.360;12.354;2023-04-19T07:24:50;32.30;21.80
38910;DHT22;24676;51.360;12.354;2023-04-19T07:27:35;32.60;21.20
38910;DHT22;24676;51.360;12.354;2023-04-19T07:30:19;33.00;20.90
38910;DHT22;24676;51.360;12.354;2023-04-19T07:33:03;33.80;20.60
38910;DHT22;24676;51.360;12.354;2023-04-19T07:35:47;34.10;20.30
38910;DHT22;24676;51.360;12.354;2023-04-19T07:38:32;35.20;19.60
38910;DHT22;24676;51.360;12.354;2023-04-19T07:41:16;34.50;19.80
38910;DHT22;24676;51.360;12.354;2023-04-19T07:44:01;33.30;20.20
38910;DHT22;24676;51.360;12.354;2023-04-19T07:46:46;32.90;19.80
38910;DHT22;24676;51.360;12.354;2023-04-19T07:49:30;32.40;20.10
38910;DHT22;24676;51.360;12.354;2023-04-19T07:52:16;32.20;20.40
38910;DHT22;24676;51.360;12.354;2023-04-19T07:55:01;33.30;19.80
38910;DHT22;24676;51.360;12.354;2023-04-19T07:57:45;32.90;19.90
38910;DHT22;24676;51.360;12.354;2023-04-19T08:00:31;32.60;19.20
38910;DHT22;24676;51.360;12.354;2023-04-19T08:03:17;32.10;20.40
38910;DHT22;24676;51.360;12.354;2023-04-19T08:06:04;31.10;21.60
38910;DHT22;24676;51.360;12.354;2023-04-19T08:08:51;30.70;21.00
38910;DHT22;24676;51.360;12.354;2023-04-19T08:11:35;29.30;21.80
38910;DHT22;24676;51.360;12.354;2023-04-19T08:14:20;26.80;23.50
38910;DHT22;24676;51.360;12.354;2023-04-19T08:17:04;25.10;24.80
38910;DHT22;24676;51.360;12.354;2023-04-19T08:19:49;23.40;26.60
38910;DHT22;24676;51.360;12.354;2023-04-19T08:22:33;22.10;28.10
38910;DHT22;24676;51.360;12.354;2023-04-19T08:25:17;21.50;29.70
38910;DHT22;24676;51.360;12.354;2023-04-19T08:28:02;20.90;31.60
38910;DHT22;24676;51.360;12.354;2023-04-19T08:30:46;20.60;30.70
38910;DHT22;24676;51.360;12.354;2023-04-19T08:33:30;19.90;32.40
38910;DHT22;24676;51.360;12.354;2023-04-19T08:36:14;19.50;33.10
38910;DHT22;24676;51.360;12.354;2023-04-19T08:38:59;19.30;32.70
38910;DHT22;24676;51.360;12.354;2023-04-19T08:41:43;19.00;34.50
38910;DHT22;24676;51.360;12.354;2023-04-19T08:44:27;19.30;33.50
38910;DHT22;24676;51.360;12.354;2023-04-19T08:47:13;20.00;32.70
38910;DHT22;24676;51.360;12.354;2023-04-19T08:49:59;20.80;32.70
38910;DHT22;24676;51.360;12.354;2023-04-19T08:52:43;21.30;30.50
38910;DHT22;24676;51.360;12.354;2023-04-19T08:55:27;20.70;31.00
38910;DHT22;24676;51.360;12.354;2023-04-19T08:58:12;20.50;31.40
38910;DHT22;24676;51.360;12.354;2023-04-19T09:00:56;20.00;31.90
38910;DHT22;24676;51.360;12.354;2023-04-19T09:03:44;19.20;33.70
38910;DHT22;24676;51.360;12.354;2023-04-19T09:06:29;19.20;33.70
38910;DHT22;24676;51.360;12.354;2023-04-19T09:09:19;19.20;33.50
38910;DHT22;24676;51.360;12.354;2023-04-19T09:12:13;19.00;34.40
38910;DHT22;24676;51.360;12.354;2023-04-19T09:14:58;18.60;35.60
38910;DHT22;24676;51.360;12.354;2023-04-19T09:17:42;18.40;35.70
38910;DHT22;24676;51.360;12.354;2023-04-19T09:20:34;18.60;35.20
38910;DHT22;24676;51.360;12.354;2023-04-19T09:23:18;18.40;35.30
38910;DHT22;24676;51.360;12.354;2023-04-19T09:26:03;18.30;35.50
38910;DHT22;24676;51.360;12.354;2023-04-19T09:29:08;18.50;35.40
38910;DHT22;24676;51.360;12.354;2023-04-19T09:31:56;18.40;35.60
38910;DHT22;24676;51.360;12.354;2023-04-19T09:34:49;18.80;35.50
38910;DHT22;24676;51.360;12.354;2023-04-19T09:37:34;19.10;34.30
38910;DHT22;24676;51.360;12.354;2023-04-19T09:40:24;19.40;34.60
38910;DHT22;24676;51.360;12.354;2023-04-19T09:43:08;19.50;34.50
38910;DHT22;24676;51.360;12.354;2023-04-19T09:45:53;19.60;33.50
38910;DHT22;24676;51.360;12.354;2023-04-19T09:48:37;19.30;33.20
38910;DHT22;24676;51.360;12.354;2023-04-19T09:51:21;19.10;32.10
38910;DHT22;24676;51.360;12.354;2023-04-19T09:54:05;18.90;32.70
38910;DHT22;24676;51.360;12.354;2023-04-19T09:56:50;19.00;32.00
38910;DHT22;24676;51.360;12.354;2023-04-19T09:59:35;19.40;32.10
38910;DHT22;24676;51.360;12.354;2023-04-19T10:02:19;19.90;31.60
38910;DHT22;24676;51.360;12.354;2023-04-19T10:05:05;20.20;30.50
38910;DHT22;24676;51.360;12.354;2023-04-19T10:07:51;21.10;30.20
38910;DHT22;24676;51.360;12.354;2023-04-19T10:10:35;21.50;29.70
38910;DHT22;24676;51.360;12.354;2023-04-19T10:13:20;21.60;29.60
38910;DHT22;24676;51.360;12.354;2023-04-19T10:16:06;22.70;28.90
38910;DHT22;24676;51.360;12.354;2023-04-19T10:18:50;23.80;27.00
38910;DHT22;24676;51.360;12.354;2023-04-19T10:21:36;24.40;27.10
38910;DHT22;24676;51.360;12.354;2023-04-19T10:24:21;24.70;26.60
38910;DHT22;24676;51.360;12.354;2023-04-19T10:32:42;26.30;24.30
38910;DHT22;24676;51.360;12.354;2023-04-19T10:35:27;26.40;24.80
38910;DHT22;24676;51.360;12.354;2023-04-19T10:38:15;26.60;24.70
38910;DHT22;24676;51.360;12.354;2023-04-19T10:40:59;26.50;24.00
38910;DHT22;24676;51.360;12.354;2023-04-19T10:44:08;26.20;24.50
38910;DHT22;24676;51.360;12.354;2023-04-19T10:46:52;25.90;24.70
38910;DHT22;24676;51.360;12.354;2023-04-19T10:49:45;25.70;25.10
38910;DHT22;24676;51.360;12.354;2023-04-19T10:52:29;25.50;25.20
38910;DHT22;24676;51.360;12.354;2023-04-19T10:55:14;24.70;26.50
38910;DHT22;24676;51.360;12.354;2023-04-19T10:58:04;23.90;26.70
38910;DHT22;24676;51.360;12.354;2023-04-19T11:00:49;23.30;28.00
38910;DHT22;24676;51.360;12.354;2023-04-19T11:06:26;22.90;28.60
38910;DHT22;24676;51.360;12.354;2023-04-19T11:09:10;23.20;28.50
38910;DHT22;24676;51.360;12.354;2023-04-19T11:11:58;21.80;29.50
38910;DHT22;24676;51.360;12.354;2023-04-19T11:14:47;21.50;30.30
38910;DHT22;24676;51.360;12.354;2023-04-19T11:17:32;20.90;30.50
38910;DHT22;24676;51.360;12.354;2023-04-19T11:20:16;20.60;31.90
38910;DHT22;24676;51.360;12.354;2023-04-19T11:23:00;20.90;32.00
38910;DHT22;24676;51.360;12.354;2023-04-19T11:25:44;22.20;30.00
38910;DHT22;24676;51.360;12.354;2023-04-19T11:28:32;23.40;29.20
38910;DHT22;24676;51.360;12.354;2023-04-19T11:31:17;24.00;28.30
38910;DHT22;24676;51.360;12.354;2023-04-19T11:34:02;23.20;28.40
38910;DHT22;24676;51.360;12.354;2023-04-19T11:36:50;22.10;28.80
38910;DHT22;24676;51.360;12.354;2023-04-19T11:39:44;21.30;30.00
38910;DHT22;24676;51.360;12.354;2023-04-19T11:42:29;20.10;31.40
38910;DHT22;24676;51.360;12.354;2023-04-19T11:45:23;18.90;33.20
38910;DHT22;24676;51.360;12.354;2023-04-19T11:48:14;19.30;35.20
38910;DHT22;24676;51.360;12.354;2023-04-19T11:50:59;22.10;32.20
38910;DHT22;24676;51.360;12.354;2023-04-19T11:53:44;22.90;28.90
38910;DHT22;24676;51.360;12.354;2023-04-19T11:56:28;21.50;28.90
38910;DHT22;24676;51.360;12.354;2023-04-19T11:59:13;20.10;31.10
38910;DHT22;24676;51.360;12.354;2023-04-19T12:04:48;17.70;34.90
38910;DHT22;24676;51.360;12.354;2023-04-19T12:07:32;17.00;37.00
38910;DHT22;24676;51.360;12.354;2023-04-19T12:10:16;16.50;37.90
38910;DHT22;24676;51.360;12.354;2023-04-19T12:13:00;16.00;39.60
38910;DHT22;24676;51.360;12.354;2023-04-19T12:15:45;16.00;40.30
38910;DHT22;24676;51.360;12.354;2023-04-19T12:18:49;16.20;39.80
38910;DHT22;24676;51.360;12.354;2023-04-19T12:21:33;16.70;39.00
38910;DHT22;24676;51.360;12.354;2023-04-19T12:24:18;16.50;38.00
38910;DHT22;24676;51.360;12.354;2023-04-19T12:27:02;16.00;38.90
38910;DHT22;24676;51.360;12.354;2023-04-19T12:29:46;15.40;40.30
38910;DHT22;24676;51.360;12.354;2023-04-19T12:32:30;15.10;40.80
38910;DHT22;24676;51.360;12.354;2023-04-19T12:35:14;14.80;41.40
38910;DHT22;24676;51.360;12.354;2023-04-19T12:37:59;14.60;41.00
38910;DHT22;24676;51.360;12.354;2023-04-19T12:40:43;14.20;43.50
38910;DHT22;24676;51.360;12.354;2023-04-19T12:43:27;13.60;49.60
38910;DHT22;24676;51.360;12.354;2023-04-19T12:46:13;13.00;52.60
38910;DHT22;24676;51.360;12.354;2023-04-19T12:48:57;12.60;53.40
38910;DHT22;24676;51.360;12.354;2023-04-19T12:51:41;12.40;52.80
38910;DHT22;24676;51.360;12.354;2023-04-19T12:54:25;12.50;53.60
38910;DHT22;24676;51.360;12.354;2023-04-19T12:57:09;13.20;52.60
38910;DHT22;24676;51.360;12.354;2023-04-19T12:59:53;14.30;49.80
38910;DHT22;24676;51.360;12.354;2023-04-19T13:02:38;15.00;48.60
38910;DHT22;24676;51.360;12.354;2023-04-19T13:05:22;15.30;45.60
38910;DHT22;24676;51.360;12.354;2023-04-19T13:08:06;15.50;45.00
38910;DHT22;24676;51.360;12.354;2023-04-19T13:10:50;16.80;44.10
38910;DHT22;24676;51.360;12.354;2023-04-19T13:13:34;17.40;39.90
38910;DHT22;24676;51.360;12.354;2023-04-19T13:16:18;16.70;38.90
38910;DHT22;24676;51.360;12.354;2023-04-19T13:19:02;16.40;39.80
38910;DHT22;24676;51.360;12.354;2023-04-19T13:21:47;16.30;39.90
38910;DHT22;24676;51.360;12.354;2023-04-19T13:24:31;16.00;40.40
38910;DHT22;24676;51.360;12.354;2023-04-19T13:27:15;15.70;40.30
38910;DHT22;24676;51.360;12.354;2023-04-19T13:29:59;15.40;41.00
38910;DHT22;24676;51.360;12.354;2023-04-19T13:32:44;15.10;45.60
38910;DHT22;24676;51.360;12.354;2023-04-19T13:35:28;14.90;45.60
38910;DHT22;24676;51.360;12.354;2023-04-19T13:38:13;14.70;45.50
38910;DHT22;24676;51.360;12.354;2023-04-19T13:40:57;15.00;45.60
38910;DHT22;24676;51.360;12.354;2023-04-19T13:43:42;15.40;44.10
38910;DHT22;24676;51.360;12.354;2023-04-19T13:46:26;15.90;42.80
38910;DHT22;24676;51.360;12.354;2023-04-19T13:49:10;16.20;40.60
38910;DHT22;24676;51.360;12.354;2023-04-19T13:51:54;16.20;39.60
38910;DHT22;24676;51.360;12.354;2023-04-19T13:54:39;16.00;39.70
38910;DHT22;24676;51.360;12.354;2023-04-19T13:57:23;15.70;40.40
38910;DHT22;24676;51.360;12.354;2023-04-19T14:00:07;15.30;41.00
38910;DHT22;24676;51.360;12.354;2023-04-19T14:02:53;14.90;41.20
38910;DHT22;24676;51.360;12.354;2023-04-19T14:05:37;14.70;41.90
38910;DHT22;24676;51.360;12.354;2023-04-19T14:08:21;14.60;42.70
38910;DHT22;24676;51.360;12.354;2023-04-19T14:11:05;14.30;43.00
38910;DHT22;24676;51.360;12.354;2023-04-19T14:13:51;14.30;43.00
38910;DHT22;24676;51.360;12.354;2023-04-19T14:16:35;14.40;43.00
38910;DHT22;24676;51.360;12.354;2023-04-19T14:19:19;14.60;43.30
38910;DHT22;24676;51.360;12.354;2023-04-19T14:22:03;14.90;42.60
38910;DHT22;24676;51.360;12.354;2023-04-19T14:24:47;15.20;42.50
38910;DHT22;24676;51.360;12.354;2023-04-19T14:27:31;15.30;41.80
38910;DHT22;24676;51.360;12.354;2023-04-19T14:30:16;15.30;41.50
38910;DHT22;24676;51.360;12.354;2023-04-19T14:33:00;15.20;41.90
38910;DHT22;24676;51.360;12.354;2023-04-19T14:35:44;15.00;41.60
38910;DHT22;24676;51.360;12.354;2023-04-19T14:38:28;14.70;42.00
38910;DHT22;24676;51.360;12.354;2023-04-19T14:41:12;14.50;42.10
38910;DHT22;24676;51.360;12.354;2023-04-19T14:43:56;14.30;43.00
38910;DHT22;24676;51.360;12.354;2023-04-19T14:46:41;14.10;43.10
38910;DHT22;24676;51.360;12.354;2023-04-19T14:49:25;14.00;43.80
38910;DHT22;24676;51.360;12.354;2023-04-19T14:52:09;13.80;43.90
38910;DHT22;24676;51.360;12.354;2023-04-19T14:54:53;13.70;44.90
38910;DHT22;24676;51.360;12.354;2023-04-19T14:57:38;13.40;45.80
38910;DHT22;24676;51.360;12.354;2023-04-19T15:00:22;13.00;49.10
38910;DHT22;24676;51.360;12.354;2023-04-19T15:03:06;12.40;54.90
38910;DHT22;24676;51.360;12.354;2023-04-19T15:05:50;11.50;60.50
38910;DHT22;24676;51.360;12.354;2023-04-19T15:08:34;10.60;70.80
38910;DHT22;24676;51.360;12.354;2023-04-19T15:11:19;9.90;92.30
38910;DHT22;24676;51.360;12.354;2023-04-19T15:14:03;9.30;99.90
38910;DHT22;24676;51.360;12.354;2023-04-19T15:16:47;8.90;99.90
38910;DHT22;24676;51.360;12.354;2023-04-19T15:19:32;8.60;99.90
38910;DHT22;24676;51.360;12.354;2023-04-19T15:22:16;8.40;99.90
38910;DHT22;24676;51.360;12.354;2023-04-19T15:25:00;8.30;99.90
38910;DHT22;24676;51.360;12.354;2023-04-19T15:27:45;8.30;99.90
38910;DHT22;24676;51.360;12.354;2023-04-19T15:30:29;8.30;99.90
38910;DHT22;24676;51.360;12.354;2023-04-19T15:33:13;8.50;99.90
38910;DHT22;24676;51.360;12.354;2023-04-19T15:35:58;8.60;99.90
38910;DHT22;24676;51.360;12.354;2023-04-19T15:38:42;8.80;99.90
38910;DHT22;24676;51.360;12.354;2023-04-19T15:41:26;9.00;99.90
38910;DHT22;24676;51.360;12.354;2023-04-19T15:44:10;9.00;99.90
38910;DHT22;24676;51.360;12.354;2023-04-19T15:46:55;9.20;99.90
38910;DHT22;24676;51.360;12.354;2023-04-19T15:49:39;9.40;99.90
38910;DHT22;24676;51.360;12.354;2023-04-19T15:52:23;9.60;99.90
38910;DHT22;24676;51.360;12.354;2023-04-19T15:55:07;9.70;99.90
38910;DHT22;24676;51.360;12.354;2023-04-19T15:57:52;9.80;99.90
38910;DHT22;24676;51.360;12.354;2023-04-19T16:00:36;9.80;99.90
38910;DHT22;24676;51.360;12.354;2023-04-19T16:03:20;9.80;99.90
38910;DHT22;24676;51.360;12.354;2023-04-19T16:06:05;9.90;99.90
38910;DHT22;24676;51.360;12.354;2023-04-19T16:08:49;10.00;99.90
38910;DHT22;24676;51.360;12.354;2023-04-19T16:11:33;10.00;99.90
38910;DHT22;24676;51.360;12.354;2023-04-19T16:14:17;10.10;99.90
38910;DHT22;24676;51.360;12.354;2023-04-19T16:17:02;10.20;99.90
38910;DHT22;24676;51.360;12.354;2023-04-19T16:19:46;10.30;99.00
38910;DHT22;24676;51.360;12.354;2023-04-19T16:22:30;10.50;99.80
38910;DHT22;24676;51.360;12.354;2023-04-19T16:25:15;10.60;96.30
38910;DHT22;24676;51.360;12.354;2023-04-19T16:28:00;10.70;93.20
38910;DHT22;24676;51.360;12.354;2023-04-19T16:30:44;10.80;93.30
38910;DHT22;24676;51.360;12.354;2023-04-19T16:33:28;10.80;90.10
38910;DHT22;24676;51.360;12.354;2023-04-19T16:36:13;10.70;90.20
38910;DHT22;24676;51.360;12.354;2023-04-19T16:38:57;10.60;84.70
38910;DHT22;24676;51.360;12.354;2023-04-19T16:41:41;10.50;90.30
38910;DHT22;24676;51.360;12.354;2023-04-19T16:44:27;10.50;88.20
38910;DHT22;24676;51.360;12.354;2023-04-19T16:47:11;10.40;88.50
38910;DHT22;24676;51.360;12.354;2023-04-19T16:49:57;10.40;93.00
38910;DHT22;24676;51.360;12.354;2023-04-19T16:52:41;10.40;92.70
38910;DHT22;24676;51.360;12.354;2023-04-19T16:55:25;10.30;93.90
38910;DHT22;24676;51.360;12.354;2023-04-19T16:58:10;10.30;94.70
38910;DHT22;24676;51.360;12.354;2023-04-19T17:00:54;10.30;94.00
38910;DHT22;24676;51.360;12.354;2023-04-19T17:03:40;10.30;93.60
38910;DHT22;24676;51.360;12.354;2023-04-19T17:06:24;10.30;95.20
38910;DHT22;24676;51.360;12.354;2023-04-19T17:09:09;10.20;95.00
38910;DHT22;24676;51.360;12.354;2023-04-19T17:11:54;10.20;95.40
38910;DHT22;24676;51.360;12.354;2023-04-19T17:14:39;10.20;97.00
38910;DHT22;24676;51.360;12.354;2023-04-19T17:17:24;10.20;96.80
38910;DHT22;24676;51.360;12.354;2023-04-19T17:20:08;10.20;96.40
38910;DHT22;24676;51.360;12.354;2023-04-19T17:22:52;10.20;96.30